sensor_id;sensor_type;location;lat;lon;timestamp;temperature;humidity
63051;SHT30;49136;47.416;19.402;2023-06-14T00:01:01;11.39;99.27
63051;SHT30;49136;47.416;19.402;2023-06-14T00:03:29;11.33;99.67
63051;SHT30;49136;47.416;19.402;2023-06-14T00:05:54;11.32;99.67
63051;SHT30;49136;47.416;19.402;2023-06-14T00:08:20;11.26;99.87
63051;SHT30;49136;47.416;19.402;2023-06-14T00:10:48;11.22;99.97
63051;SHT30;49136;47.416;19.402;2023-06-14T00:13:13;11.18;99.99
63051;SHT30;49136;47.416;19.402;2023-06-14T00:15:39;11.16;99.99
63051;SHT30;49136;47.416;19.402;2023-06-14T00:18:05;11.22;99.99
63051;SHT30;49136;47.416;19.402;2023-06-14T00:20:32;11.18;99.99
63051;SHT30;49136;47.416;19.402;2023-06-14T00:23:00;11.15;99.99
63051;SHT30;49136;47.416;19.402;2023-06-14T00:25:26;11.14;99.99
63051;SHT30;49136;47.416;19.402;2023-06-14T00:27:52;11.11;99.99
63051;SHT30;49136;47.416;19.402;2023-06-14T00:30:19;11.07;99.99
63051;SHT30;49136;47.416;19.402;2023-06-14T00:32:45;11.09;99.99
63051;SHT30;49136;47.416;19.402;2023-06-14T00:35:11;11.08;99.99
63051;SHT30;49136;47.416;19.402;2023-06-14T00:37:39;11.09;99.99
63051;SHT30;49136;47.416;19.402;2023-06-14T00:40:05;11.04;99.99
63051;SHT30;49136;47.416;19.402;2023-06-14T00:42:31;10.99;99.99
63051;SHT30;49136;47.416;19.402;2023-06-14T00:44:56;10.97;99.99
63051;SHT30;49136;47.416;19.402;2023-06-14T00:47:22;10.91;99.99
63051;SHT30;49136;47.416;19.402;2023-06-14T00:49:50;10.92;99.99
63051;SHT30;49136;47.416;19.402;2023-06-14T00:52:19;10.87;99.99
63051;SHT30;49136;47.416;19.402;2023-06-14T00:54:45;10.85;99.99
63051;SHT30;49136;47.416;19.402;2023-06-14T00:57:11;10.83;99.99
63051;SHT30;49136;47.416;19.402;2023-06-14T00:59:48;10.84;99.99
63051;SHT30;49136;47.416;19.402;2023-06-14T01:02:14;10.85;99.99
63051;SHT30;49136;47.416;19.402;2023-06-14T01:04:46;10.83;99.99
63051;SHT30;49136;47.416;19.402;2023-06-14T01:13:13;10.78;99.99
63051;SHT30;49136;47.416;19.402;2023-06-14T01:15:42;10.78;99.99
63051;SHT30;49136;47.416;19.402;2023-06-14T01:18:09;10.77;99.99
63051;SHT30;49136;47.416;19.402;2023-06-14T01:20:46;10.75;99.99
63051;SHT30;49136;47.416;19.402;2023-06-14T01:23:18;10.71;99.99
63051;SHT30;49136;47.416;19.402;2023-06-14T01:25:44;10.77;99.99
63051;SHT30;49136;47.416;19.402;2023-06-14T01:28:10;10.74;99.99
63051;SHT30;49136;47.416;19.402;2023-06-14T01:30:41;10.74;99.99
63051;SHT30;49136;47.416;19.402;2023-06-14T01:33:21;10.77;99.99
63051;SHT30;49136;47.416;19.402;2023-06-14T01:35:49;10.70;99.99
63051;SHT30;49136;47.416;19.402;2023-06-14T01:38:19;10.67;99.99
63051;SHT30;49136;47.416;19.402;2023-06-14T01:40:46;10.66;99.99
63051;SHT30;49136;47.416;19.402;2023-06-14T01:43:14;10.71;99.99
63051;SHT30;49136;47.416;19.402;2023-06-14T01:45:41;10.64;99.99
63051;SHT30;49136;47.416;19.402;2023-06-14T01:48:08;10.63;99.99
63051;SHT30;49136;47.416;19.402;2023-06-14T01:50:34;10.56;99.99
63051;SHT30;49136;47.416;19.402;2023-06-14T01:53:00;10.53;99.99
63051;SHT30;49136;47.416;19.402;2023-06-14T01:55:27;10.52;99.99
63051;SHT30;49136;47.416;19.402;2023-06-14T01:57:55;10.52;99.99
63051;SHT30;49136;47.416;19.402;2023-06-14T02:00:21;10.53;99.99
63051;SHT30;49136;47.416;19.402;2023-06-14T02:02:46;10.45;99.99
63051;SHT30;49136;47.416;19.402;2023-06-14T02:05:12;10.49;99.99
63051;SHT30;49136;47.416;19.402;2023-06-14T02:07:38;10.49;99.99
63051;SHT30;49136;47.416;19.402;2023-06-14T02:10:04;10.45;99.99
63051;SHT30;49136;47.416;19.402;2023-06-14T02:12:30;10.43;99.99
63051;SHT30;49136;47.416;19.402;2023-06-14T02:14:55;10.48;99.99
63051;SHT30;49136;47.416;19.402;2023-06-14T02:17:22;10.53;99.99
63051;SHT30;49136;47.416;19.402;2023-06-14T02:19:48;10.53;99.99
63051;SHT30;49136;47.416;19.402;2023-06-14T02:22:14;10.56;99.99
63051;SHT30;49136;47.416;19.402;2023-06-14T02:24:43;10.50;99.99
63051;SHT30;49136;47.416;19.402;2023-06-14T02:27:09;10.49;99.99
63051;SHT30;49136;47.416;19.402;2023-06-14T02:29:35;10.52;99.99
63051;SHT30;49136;47.416;19.402;2023-06-14T02:32:04;10.42;99.99
63051;SHT30;49136;47.416;19.402;2023-06-14T02:34:29;10.43;99.99
63051;SHT30;49136;47.416;19.402;2023-06-14T02:36:55;10.35;99.99
63051;SHT30;49136;47.416;19.402;2023-06-14T02:39:21;10.32;99.99
63051;SHT30;49136;47.416;19.402;2023-06-14T02:41:48;10.26;99.99
63051;SHT30;49136;47.416;19.402;2023-06-14T02:44:14;10.21;99.99
63051;SHT30;49136;47.416;19.402;2023-06-14T02:46:40;10.24;99.99
63051;SHT30;49136;47.416;19.402;2023-06-14T02:49:06;10.24;99.99
63051;SHT30;49136;47.416;19.402;2023-06-14T02:51:31;10.31;99.99
63051;SHT30;49136;47.416;19.402;2023-06-14T02:53:57;10.31;99.99
63051;SHT30;49136;47.416;19.402;2023-06-14T02:56:22;10.31;99.99
63051;SHT30;49136;47.416;19.402;2023-06-14T02:58:48;10.31;99.99
63051;SHT30;49136;47.416;19.402;2023-06-14T03:01:14;10.32;99.99
63051;SHT30;49136;47.416;19.402;2023-06-14T03:03:40;10.35;99.99
63051;SHT30;49136;47.416;19.402;2023-06-14T03:06:05;10.33;99.99
63051;SHT30;49136;47.416;19.402;2023-06-14T03:08:31;10.39;99.99
63051;SHT30;49136;47.416;19.402;2023-06-14T03:11:04;10.40;99.99
63051;SHT30;49136;47.416;19.402;2023-06-14T03:13:30;10.43;99.99
63051;SHT30;49136;47.416;19.402;2023-06-14T03:15:57;10.48;99.99
63051;SHT30;49136;47.416;19.402;2023-06-14T03:18:23;10.52;99.99
63051;SHT30;49136;47.416;19.402;2023-06-14T03:20:48;10.55;99.99
63051;SHT30;49136;47.416;19.402;2023-06-14T03:23:14;10.60;99.99
63051;SHT30;49136;47.416;19.402;2023-06-14T03:25:39;10.66;99.99
63051;SHT30;49136;47.416;19.402;2023-06-14T03:28:07;10.68;99.99
63051;SHT30;49136;47.416;19.402;2023-06-14T03:30:33;10.77;99.99
63051;SHT30;49136;47.416;19.402;2023-06-14T03:33:03;10.77;99.99
63051;SHT30;49136;47.416;19.402;2023-06-14T03:35:28;10.83;99.99
63051;SHT30;49136;47.416;19.402;2023-06-14T03:37:54;10.88;99.99
63051;SHT30;49136;47.416;19.402;2023-06-14T03:40:21;10.95;99.99
63051;SHT30;49136;47.416;19.402;2023-06-14T03:42:47;11.08;99.99
63051;SHT30;49136;47.416;19.402;2023-06-14T03:45:12;11.15;99.99
63051;SHT30;49136;47.416;19.402;2023-06-14T03:47:37;11.23;99.99
63051;SHT30;49136;47.416;19.402;2023-06-14T03:50:04;11.30;99.99
63051;SHT30;49136;47.416;19.402;2023-06-14T03:52:29;11.37;99.99
63051;SHT30;49136;47.416;19.402;2023-06-14T03:54:56;11.39;99.99
63051;SHT30;49136;47.416;19.402;2023-06-14T03:57:22;11.39;99.99
63051;SHT30;49136;47.416;19.402;2023-06-14T03:59:48;11.40;99.99
63051;SHT30;49136;47.416;19.402;2023-06-14T04:02:13;11.43;99.99
63051;SHT30;49136;47.416;19.402;2023-06-14T04:04:42;11.53;99.99
63051;SHT30;49136;47.416;19.402;2023-06-14T04:07:20;11.74;99.99
63051;SHT30;49136;47.416;19.402;2023-06-14T04:09:46;11.94;99.53
63051;SHT30;49136;47.416;19.402;2023-06-14T04:12:12;12.13;98.93
63051;SHT30;49136;47.416;19.402;2023-06-14T04:14:39;12.38;98.07
63051;SHT30;49136;47.416;19.402;2023-06-14T04:17:04;12.53;97.56
63051;SHT30;49136;47.416;19.402;2023-06-14T04:19:30;12.60;97.32
63051;SHT30;49136;47.416;19.402;2023-06-14T04:21:55;12.72;97.21
63051;SHT30;49136;47.416;19.402;2023-06-14T04:24:24;13.19;95.65
63051;SHT30;49136;47.416;19.402;2023-06-14T04:27:00;14.02;92.90
63051;SHT30;49136;47.416;19.402;2023-06-14T04:29:29;14.31;91.27
63051;SHT30;49136;47.416;19.402;2023-06-14T04:31:55;14.75;90.22
63051;SHT30;49136;47.416;19.402;2023-06-14T04:34:27;15.31;88.12
63051;SHT30;49136;47.416;19.402;2023-06-14T04:37:00;15.89;87.87
63051;SHT30;49136;47.416;19.402;2023-06-14T04:39:26;16.19;85.81
63051;SHT30;49136;47.416;19.402;2023-06-14T04:41:53;16.50;84.32
63051;SHT30;49136;47.416;19.402;2023-06-14T04:44:23;16.76;84.04
63051;SHT30;49136;47.416;19.402;2023-06-14T04:46:55;16.69;84.34
63051;SHT30;49136;47.416;19.402;2023-06-14T04:49:21;15.98;85.55
63051;SHT30;49136;47.416;19.402;2023-06-14T04:51:48;16.38;84.74
63051;SHT30;49136;47.416;19.402;2023-06-14T04:54:16;17.20;84.82
63051;SHT30;49136;47.416;19.402;2023-06-14T04:56:44;17.49;81.42
63051;SHT30;49136;47.416;19.402;2023-06-14T04:59:10;17.79;81.01
63051;SHT30;49136;47.416;19.402;2023-06-14T05:01:40;17.77;80.18
63051;SHT30;49136;47.416;19.402;2023-06-14T05:04:05;18.16;79.44
63051;SHT30;49136;47.416;19.402;2023-06-14T05:06:31;18.16;78.47
63051;SHT30;49136;47.416;19.402;2023-06-14T05:08:56;18.25;79.43
63051;SHT30;49136;47.416;19.402;2023-06-14T05:11:22;18.63;76.86
63051;SHT30;49136;47.416;19.402;2023-06-14T05:13:52;19.34;79.22
63051;SHT30;49136;47.416;19.402;2023-06-14T05:16:17;18.51;75.53
63051;SHT30;49136;47.416;19.402;2023-06-14T05:18:45;18.84;76.61
63051;SHT30;49136;47.416;19.402;2023-06-14T05:21:11;17.98;76.23
63051;SHT30;49136;47.416;19.402;2023-06-14T05:23:36;18.68;75.64
63051;SHT30;49136;47.416;19.402;2023-06-14T05:26:02;19.15;75.39
63051;SHT30;49136;47.416;19.402;2023-06-14T05:28:29;18.43;76.02
63051;SHT30;49136;47.416;19.402;2023-06-14T05:30:56;18.53;76.82
63051;SHT30;49136;47.416;19.402;2023-06-14T05:33:21;18.32;75.63
63051;SHT30;49136;47.416;19.402;2023-06-14T05:35:47;18.99;77.42
63051;SHT30;49136;47.416;19.402;2023-06-14T05:38:12;18.98;75.98
63051;SHT30;49136;47.416;19.402;2023-06-14T05:40:37;18.41;75.98
63051;SHT30;49136;47.416;19.402;2023-06-14T05:43:03;19.13;76.27
63051;SHT30;49136;47.416;19.402;2023-06-14T05:45:28;19.76;74.30
63051;SHT30;49136;47.416;19.402;2023-06-14T05:47:54;19.35;73.71
63051;SHT30;49136;47.416;19.402;2023-06-14T05:50:22;20.21;73.21
63051;SHT30;49136;47.416;19.402;2023-06-14T05:52:47;19.75;73.50
63051;SHT30;49136;47.416;19.402;2023-06-14T05:55:13;19.16;75.67
63051;SHT30;49136;47.416;19.402;2023-06-14T05:57:38;19.96;75.69
63051;SHT30;49136;47.416;19.402;2023-06-14T06:00:06;19.87;72.85
63051;SHT30;49136;47.416;19.402;2023-06-14T06:02:40;19.72;73.65
63051;SHT30;49136;47.416;19.402;2023-06-14T06:05:07;20.48;73.86
63051;SHT30;49136;47.416;19.402;2023-06-14T06:07:33;20.56;74.58
63051;SHT30;49136;47.416;19.402;2023-06-14T06:09:59;20.79;72.91
63051;SHT30;49136;47.416;19.402;2023-06-14T06:12:24;20.96;72.36
63051;SHT30;49136;47.416;19.402;2023-06-14T06:14:53;20.93;72.48
63051;SHT30;49136;47.416;19.402;2023-06-14T06:17:18;21.10;72.05
63051;SHT30;49136;47.416;19.402;2023-06-14T06:19:44;20.96;69.91
63051;SHT30;49136;47.416;19.402;2023-06-14T06:22:09;21.03;72.12
63051;SHT30;49136;47.416;19.402;2023-06-14T06:24:35;21.00;73.10
63051;SHT30;49136;47.416;19.402;2023-06-14T06:27:00;21.32;73.91
63051;SHT30;49136;47.416;19.402;2023-06-14T06:29:27;21.66;71.49
63051;SHT30;49136;47.416;19.402;2023-06-14T06:31:53;21.82;70.68
63051;SHT30;49136;47.416;19.402;2023-06-14T06:34:18;21.35;69.82
63051;SHT30;49136;47.416;19.402;2023-06-14T06:36:43;21.66;71.63
63051;SHT30;49136;47.416;19.402;2023-06-14T06:39:09;22.04;71.18
63051;SHT30;49136;47.416;19.402;2023-06-14T06:41:38;22.04;69.84
63051;SHT30;49136;47.416;19.402;2023-06-14T06:44:05;21.79;72.62
63051;SHT30;49136;47.416;19.402;2023-06-14T06:46:32;21.77;69.61
63051;SHT30;49136;47.416;19.402;2023-06-14T06:48:58;22.15;68.85
63051;SHT30;49136;47.416;19.402;2023-06-14T06:51:23;22.07;68.84
63051;SHT30;49136;47.416;19.402;2023-06-14T06:53:54;21.96;70.22
63051;SHT30;49136;47.416;19.402;2023-06-14T06:56:20;22.18;71.29
63051;SHT30;49136;47.416;19.402;2023-06-14T06:58:48;22.62;68.77
63051;SHT30;49136;47.416;19.402;2023-06-14T07:01:14;22.48;66.00
63051;SHT30;49136;47.416;19.402;2023-06-14T07:03:39;22.44;66.13
63051;SHT30;49136;47.416;19.402;2023-06-14T07:06:04;22.31;70.29
63051;SHT30;49136;47.416;19.402;2023-06-14T07:08:30;22.39;66.44
63051;SHT30;49136;47.416;19.402;2023-06-14T07:10:55;22.57;67.72
63051;SHT30;49136;47.416;19.402;2023-06-14T07:13:21;23.12;66.18
63051;SHT30;49136;47.416;19.402;2023-06-14T07:15:46;23.39;64.57
63051;SHT30;49136;47.416;19.402;2023-06-14T07:18:12;23.78;63.46
63051;SHT30;49136;47.416;19.402;2023-06-14T07:20:38;23.39;62.93
63051;SHT30;49136;47.416;19.402;2023-06-14T07:23:04;22.53;66.96
63051;SHT30;49136;47.416;19.402;2023-06-14T07:25:30;22.48;67.85
63051;SHT30;49136;47.416;19.402;2023-06-14T07:27:55;22.38;67.61
63051;SHT30;49136;47.416;19.402;2023-06-14T07:30:20;22.15;67.89
63051;SHT30;49136;47.416;19.402;2023-06-14T07:32:46;22.96;68.13
63051;SHT30;49136;47.416;19.402;2023-06-14T07:35:11;23.77;64.59
63051;SHT30;49136;47.416;19.402;2023-06-14T07:37:37;24.55;63.94
63051;SHT30;49136;47.416;19.402;2023-06-14T07:40:02;24.56;61.18
63051;SHT30;49136;47.416;19.402;2023-06-14T07:42:35;24.12;63.39
63051;SHT30;49136;47.416;19.402;2023-06-14T07:45:02;24.06;63.25
63051;SHT30;49136;47.416;19.402;2023-06-14T07:47:27;24.18;62.98
63051;SHT30;49136;47.416;19.402;2023-06-14T07:49:53;23.82;62.53
63051;SHT30;49136;47.416;19.402;2023-06-14T07:52:18;23.82;62.93
63051;SHT30;49136;47.416;19.402;2023-06-14T07:54:44;23.47;58.43
63051;SHT30;49136;47.416;19.402;2023-06-14T07:57:09;23.62;62.25
63051;SHT30;49136;47.416;19.402;2023-06-14T07:59:35;23.97;64.08
63051;SHT30;49136;47.416;19.402;2023-06-14T08:02:00;24.30;63.74
63051;SHT30;49136;47.416;19.402;2023-06-14T08:04:26;24.40;64.11
63051;SHT30;49136;47.416;19.402;2023-06-14T08:06:51;24.52;60.21
63051;SHT30;49136;47.416;19.402;2023-06-14T08:09:17;24.50;59.92
63051;SHT30;49136;47.416;19.402;2023-06-14T08:11:42;24.33;59.27
63051;SHT30;49136;47.416;19.402;2023-06-14T08:14:08;23.77;59.57
63051;SHT30;49136;47.416;19.402;2023-06-14T08:16:33;23.96;58.98
63051;SHT30;49136;47.416;19.402;2023-06-14T08:18:59;23.97;61.17
63051;SHT30;49136;47.416;19.402;2023-06-14T08:21:24;24.05;62.17
63051;SHT30;49136;47.416;19.402;2023-06-14T08:23:55;24.02;61.85
63051;SHT30;49136;47.416;19.402;2023-06-14T08:26:21;24.12;61.11
63051;SHT30;49136;47.416;19.402;2023-06-14T08:28:47;24.47;61.60
63051;SHT30;49136;47.416;19.402;2023-06-14T08:31:12;24.81;61.47
63051;SHT30;49136;47.416;19.402;2023-06-14T08:33:38;24.92;62.26
63051;SHT30;49136;47.416;19.402;2023-06-14T08:36:08;24.98;62.73
63051;SHT30;49136;47.416;19.402;2023-06-14T08:38:35;24.56;62.29
63051;SHT30;49136;47.416;19.402;2023-06-14T08:41:02;24.82;62.25
63051;SHT30;49136;47.416;19.402;2023-06-14T08:43:29;23.88;62.78
63051;SHT30;49136;47.416;19.402;2023-06-14T08:46:00;23.98;64.07
63051;SHT30;49136;47.416;19.402;2023-06-14T08:48:27;24.80;64.17
63051;SHT30;49136;47.416;19.402;2023-06-14T08:50:57;25.19;60.18
63051;SHT30;49136;47.416;19.402;2023-06-14T08:53:37;25.25;60.60
63051;SHT30;49136;47.416;19.402;2023-06-14T08:56:08;24.82;59.28
63051;SHT30;49136;47.416;19.402;2023-06-14T08:58:42;25.70;59.11
63051;SHT30;49136;47.416;19.402;2023-06-14T09:01:11;25.95;55.48
63051;SHT30;49136;47.416;19.402;2023-06-14T09:03:42;25.78;54.68
63051;SHT30;49136;47.416;19.402;2023-06-14T09:06:09;25.64;54.79
63051;SHT30;49136;47.416;19.402;2023-06-14T09:08:40;25.68;54.36
63051;SHT30;49136;47.416;19.402;2023-06-14T09:11:08;25.61;58.37
63051;SHT30;49136;47.416;19.402;2023-06-14T09:13:34;26.05;57.00
63051;SHT30;49136;47.416;19.402;2023-06-14T09:16:00;25.74;58.21
63051;SHT30;49136;47.416;19.402;2023-06-14T09:18:53;26.44;57.56
63051;SHT30;49136;47.416;19.402;2023-06-14T09:21:19;26.93;53.29
63051;SHT30;49136;47.416;19.402;2023-06-14T09:23:47;26.55;53.76
63051;SHT30;49136;47.416;19.402;2023-06-14T09:26:19;26.62;53.90
63051;SHT30;49136;47.416;19.402;2023-06-14T09:28:46;26.54;53.25
63051;SHT30;49136;47.416;19.402;2023-06-14T09:31:16;26.67;54.06
63051;SHT30;49136;47.416;19.402;2023-06-14T09:33:43;25.66;52.61
63051;SHT30;49136;47.416;19.402;2023-06-14T09:36:23;25.67;55.96
63051;SHT30;49136;47.416;19.402;2023-06-14T09:41:40;25.64;55.97
63051;SHT30;49136;47.416;19.402;2023-06-14T09:44:08;25.46;51.95
63051;SHT30;49136;47.416;19.402;2023-06-14T09:46:35;25.46;51.85
63051;SHT30;49136;47.416;19.402;2023-06-14T09:49:01;25.40;51.15
63051;SHT30;49136;47.416;19.402;2023-06-14T09:51:28;25.37;51.40
63051;SHT30;49136;47.416;19.402;2023-06-14T09:53:59;25.12;53.41
63051;SHT30;49136;47.416;19.402;2023-06-14T09:58:55;25.04;53.36
63051;SHT30;49136;47.416;19.402;2023-06-14T10:01:23;24.99;53.05
63051;SHT30;49136;47.416;19.402;2023-06-14T10:03:50;25.08;52.90
63051;SHT30;49136;47.416;19.402;2023-06-14T10:06:18;25.12;52.54
63051;SHT30;49136;47.416;19.402;2023-06-14T10:08:43;25.08;52.68
63051;SHT30;49136;47.416;19.402;2023-06-14T10:11:12;24.94;55.33
63051;SHT30;49136;47.416;19.402;2023-06-14T10:13:38;25.81;53.90
63051;SHT30;49136;47.416;19.402;2023-06-14T10:24:05;25.46;51.88
63051;SHT30;49136;47.416;19.402;2023-06-14T10:26:32;25.16;51.87
63051;SHT30;49136;47.416;19.402;2023-06-14T10:29:16;24.11;53.19
63051;SHT30;49136;47.416;19.402;2023-06-14T10:31:46;24.00;55.44
63051;SHT30;49136;47.416;19.402;2023-06-14T10:34:13;23.57;55.95
63051;SHT30;49136;47.416;19.402;2023-06-14T10:36:45;23.16;59.31
63051;SHT30;49136;47.416;19.402;2023-06-14T10:39:16;23.33;58.36
63051;SHT30;49136;47.416;19.402;2023-06-14T10:41:42;24.47;58.37
63051;SHT30;49136;47.416;19.402;2023-06-14T10:44:42;24.78;54.40
63051;SHT30;49136;47.416;19.402;2023-06-14T10:47:33;24.57;52.27
63051;SHT30;49136;47.416;19.402;2023-06-14T10:50:11;24.88;51.39
63051;SHT30;49136;47.416;19.402;2023-06-14T10:52:41;25.92;56.79
63051;SHT30;49136;47.416;19.402;2023-06-14T10:55:17;26.50;54.35
63051;SHT30;49136;47.416;19.402;2023-06-14T10:57:48;26.78;55.08
63051;SHT30;49136;47.416;19.402;2023-06-14T11:00:19;26.84;53.98
63051;SHT30;49136;47.416;19.402;2023-06-14T11:03:36;25.41;53.30
63051;SHT30;49136;47.416;19.402;2023-06-14T11:06:14;25.26;52.92
63051;SHT30;49136;47.416;19.402;2023-06-14T11:11:32;26.23;51.73
63051;SHT30;49136;47.416;19.402;2023-06-14T11:13:59;26.52;53.72
63051;SHT30;49136;47.416;19.402;2023-06-14T11:16:26;26.84;51.47
63051;SHT30;49136;47.416;19.402;2023-06-14T11:18:53;27.00;51.22
63051;SHT30;49136;47.416;19.402;2023-06-14T11:21:18;25.88;45.25
63051;SHT30;49136;47.416;19.402;2023-06-14T11:23:51;25.33;52.56
63051;SHT30;49136;47.416;19.402;2023-06-14T11:26:27;26.43;52.04
63051;SHT30;49136;47.416;19.402;2023-06-14T11:28:59;26.86;49.78
63051;SHT30;49136;47.416;19.402;2023-06-14T11:31:25;27.00;49.13
63051;SHT30;49136;47.416;19.402;2023-06-14T11:33:57;26.29;48.12
63051;SHT30;49136;47.416;19.402;2023-06-14T11:36:22;26.45;50.63
63051;SHT30;49136;47.416;19.402;2023-06-14T11:38:48;25.91;46.94
63051;SHT30;49136;47.416;19.402;2023-06-14T11:41:14;26.17;50.08
63051;SHT30;49136;47.416;19.402;2023-06-14T11:43:42;26.10;49.59
63051;SHT30;49136;47.416;19.402;2023-06-14T11:46:14;26.48;50.58
63051;SHT30;49136;47.416;19.402;2023-06-14T11:48:43;26.89;48.36
63051;SHT30;49136;47.416;19.402;2023-06-14T11:51:12;27.11;49.23
63051;SHT30;49136;47.416;19.402;2023-06-14T11:53:38;26.06;46.49
63051;SHT30;49136;47.416;19.402;2023-06-14T11:56:04;26.69;50.00
63051;SHT30;49136;47.416;19.402;2023-06-14T11:58:30;26.75;50.85
63051;SHT30;49136;47.416;19.402;2023-06-14T12:00:55;26.74;46.44
63051;SHT30;49136;47.416;19.402;2023-06-14T12:03:24;26.58;49.16
63051;SHT30;49136;47.416;19.402;2023-06-14T12:06:07;27.14;47.64
63051;SHT30;49136;47.416;19.402;2023-06-14T12:08:35;27.06;52.04
63051;SHT30;49136;47.416;19.402;2023-06-14T12:11:04;27.54;48.61
63051;SHT30;49136;47.416;19.402;2023-06-14T12:13:31;27.71;49.30
63051;SHT30;49136;47.416;19.402;2023-06-14T12:15:56;27.82;50.10
63051;SHT30;49136;47.416;19.402;2023-06-14T12:18:32;27.75;49.76
63051;SHT30;49136;47.416;19.402;2023-06-14T12:20:59;28.18;48.30
63051;SHT30;49136;47.416;19.402;2023-06-14T12:23:44;28.48;47.45
63051;SHT30;49136;47.416;19.402;2023-06-14T12:26:16;28.49;48.12
63051;SHT30;49136;47.416;19.402;2023-06-14T12:28:42;28.54;44.53
63051;SHT30;49136;47.416;19.402;2023-06-14T12:31:08;27.96;44.84
63051;SHT30;49136;47.416;19.402;2023-06-14T12:33:34;27.76;47.96
63051;SHT30;49136;47.416;19.402;2023-06-14T12:35:59;28.13;45.81
63051;SHT30;49136;47.416;19.402;2023-06-14T12:38:25;26.86;41.66
63051;SHT30;49136;47.416;19.402;2023-06-14T12:40:50;27.07;45.21
63051;SHT30;49136;47.416;19.402;2023-06-14T12:43:16;27.66;47.17
63051;SHT30;49136;47.416;19.402;2023-06-14T12:45:41;28.06;46.55
63051;SHT30;49136;47.416;19.402;2023-06-14T12:48:07;28.07;47.05
63051;SHT30;49136;47.416;19.402;2023-06-14T12:50:34;28.34;48.21
63051;SHT30;49136;47.416;19.402;2023-06-14T12:53:00;28.18;49.33
63051;SHT30;49136;47.416;19.402;2023-06-14T12:55:27;28.28;48.40
63051;SHT30;49136;47.416;19.402;2023-06-14T12:57:52;27.58;46.66
63051;SHT30;49136;47.416;19.402;2023-06-14T13:00:20;27.90;49.59
63051;SHT30;49136;47.416;19.402;2023-06-14T13:02:47;27.81;44.83
63051;SHT30;49136;47.416;19.402;2023-06-14T13:05:12;27.37;45.33
63051;SHT30;49136;47.416;19.402;2023-06-14T13:07:38;26.69;45.46
63051;SHT30;49136;47.416;19.402;2023-06-14T13:10:03;27.00;50.71
63051;SHT30;49136;47.416;19.402;2023-06-14T13:12:31;28.02;46.84
63051;SHT30;49136;47.416;19.402;2023-06-14T13:14:57;27.19;47.81
63051;SHT30;49136;47.416;19.402;2023-06-14T13:17:22;26.41;45.37
63051;SHT30;49136;47.416;19.402;2023-06-14T13:19:47;26.23;46.96
63051;SHT30;49136;47.416;19.402;2023-06-14T13:22:13;27.47;48.76
63051;SHT30;49136;47.416;19.402;2023-06-14T13:24:38;28.33;45.84
63051;SHT30;49136;47.416;19.402;2023-06-14T13:27:04;27.45;43.60
63051;SHT30;49136;47.416;19.402;2023-06-14T13:29:30;26.72;45.78
63051;SHT30;49136;47.416;19.402;2023-06-14T13:31:56;28.11;44.25
63051;SHT30;49136;47.416;19.402;2023-06-14T13:34:22;28.73;42.62
63051;SHT30;49136;47.416;19.402;2023-06-14T13:36:49;28.58;39.59
63051;SHT30;49136;47.416;19.402;2023-06-14T13:39:14;28.00;43.46
63051;SHT30;49136;47.416;19.402;2023-06-14T13:41:40;27.48;46.95
63051;SHT30;49136;47.416;19.402;2023-06-14T13:44:05;28.10;44.39
63051;SHT30;49136;47.416;19.402;2023-06-14T13:46:34;28.20;43.58
63051;SHT30;49136;47.416;19.402;2023-06-14T13:48:59;28.28;43.31
63051;SHT30;49136;47.416;19.402;2023-06-14T13:51:26;28.34;44.00
63051;SHT30;49136;47.416;19.402;2023-06-14T13:53:53;28.93;44.34
63051;SHT30;49136;47.416;19.402;2023-06-14T13:56:18;29.08;43.97
63051;SHT30;49136;47.416;19.402;2023-06-14T13:58:44;29.11;44.45
63051;SHT30;49136;47.416;19.402;2023-06-14T14:01:12;29.20;44.25
63051;SHT30;49136;47.416;19.402;2023-06-14T14:03:37;29.69;42.06
63051;SHT30;49136;47.416;19.402;2023-06-14T14:06:04;29.94;41.82
63051;SHT30;49136;47.416;19.402;2023-06-14T14:08:29;29.62;46.03
63051;SHT30;49136;47.416;19.402;2023-06-14T14:10:55;28.21;44.64
63051;SHT30;49136;47.416;19.402;2023-06-14T14:13:21;26.65;45.00
63051;SHT30;49136;47.416;19.402;2023-06-14T14:15:47;26.74;49.26
63051;SHT30;49136;47.416;19.402;2023-06-14T14:18:14;26.45;49.48
63051;SHT30;49136;47.416;19.402;2023-06-14T14:20:40;26.43;49.80
63051;SHT30;49136;47.416;19.402;2023-06-14T14:23:05;26.64;52.59
63051;SHT30;49136;47.416;19.402;2023-06-14T14:25:31;26.25;49.82
63051;SHT30;49136;47.416;19.402;2023-06-14T14:27:56;25.46;49.61
63051;SHT30;49136;47.416;19.402;2023-06-14T14:30:22;25.92;52.68
63051;SHT30;49136;47.416;19.402;2023-06-14T14:32:49;25.98;51.32
63051;SHT30;49136;47.416;19.402;2023-06-14T14:35:16;26.09;52.65
63051;SHT30;49136;47.416;19.402;2023-06-14T14:37:42;26.23;53.36
63051;SHT30;49136;47.416;19.402;2023-06-14T14:40:08;26.10;50.23
63051;SHT30;49136;47.416;19.402;2023-06-14T14:42:35;26.26;53.20
63051;SHT30;49136;47.416;19.402;2023-06-14T14:45:00;26.30;51.34
63051;SHT30;49136;47.416;19.402;2023-06-14T14:47:26;25.61;49.19
63051;SHT30;49136;47.416;19.402;2023-06-14T14:49:51;26.22;50.86
63051;SHT30;49136;47.416;19.402;2023-06-14T14:52:17;26.33;48.77
63051;SHT30;49136;47.416;19.402;2023-06-14T14:54:43;26.69;50.84
63051;SHT30;49136;47.416;19.402;2023-06-14T14:57:08;26.86;48.77
63051;SHT30;49136;47.416;19.402;2023-06-14T14:59:33;26.61;48.40
63051;SHT30;49136;47.416;19.402;2023-06-14T15:01:59;26.03;50.06
63051;SHT30;49136;47.416;19.402;2023-06-14T15:04:24;25.49;49.66
63051;SHT30;49136;47.416;19.402;2023-06-14T15:06:50;25.14;50.99
63051;SHT30;49136;47.416;19.402;2023-06-14T15:09:15;25.02;51.41
63051;SHT30;49136;47.416;19.402;2023-06-14T15:11:41;24.75;52.06
63051;SHT30;49136;47.416;19.402;2023-06-14T15:14:08;24.91;53.58
63051;SHT30;49136;47.416;19.402;2023-06-14T15:16:34;24.85;52.67
63051;SHT30;49136;47.416;19.402;2023-06-14T15:18:59;24.96;54.02
63051;SHT30;49136;47.416;19.402;2023-06-14T15:21:24;25.01;53.92
63051;SHT30;49136;47.416;19.402;2023-06-14T15:23:50;24.52;54.49
63051;SHT30;49136;47.416;19.402;2023-06-14T15:26:16;24.70;55.79
63051;SHT30;49136;47.416;19.402;2023-06-14T15:28:41;24.75;55.67
63051;SHT30;49136;47.416;19.402;2023-06-14T15:31:07;24.67;56.59
63051;SHT30;49136;47.416;19.402;2023-06-14T15:33:33;24.73;53.51
63051;SHT30;49136;47.416;19.402;2023-06-14T15:35:58;24.67;54.23
63051;SHT30;49136;47.416;19.402;2023-06-14T15:38:24;24.52;53.97